createdAt,value
2018-08-10T00:00:23.656Z,78.53
2018-08-10T00:02:53.695Z,79.34
2018-08-10T00:05:22.821Z,78.05
2018-08-10T00:07:51.748Z,78.23
2018-08-10T00:10:20.720Z,77.99
2018-08-10T00:12:50.845Z,78.52
2018-08-10T00:15:20.869Z,77.71
2018-08-10T00:17:53.050Z,77.02
2018-08-10T00:20:22.065Z,77.56
2018-08-10T00:22:50.957Z,77.15
2018-08-10T00:25:19.875Z,77.55
2018-08-10T00:27:49.022Z,76.34
2018-08-10T00:30:19.006Z,76.82
2018-08-10T00:32:49.182Z,77.13
2018-08-10T00:35:18.181Z,78.61
2018-08-10T00:37:48.037Z,78.26
2018-08-10T00:40:19.439Z,78.77
2018-08-10T00:42:48.389Z,78.37
2018-08-10T00:45:17.931Z,78.86
2018-08-10T00:47:47.490Z,79.75
2018-08-10T00:50:17.230Z,79.70
2018-08-10T00:52:46.827Z,80.08
2018-08-10T00:55:17.029Z,79.52
2018-08-10T00:57:46.438Z,78.96
2018-08-10T01:00:18.501Z,79.02
2018-08-10T01:02:53.896Z,78.58
2018-08-10T01:05:22.907Z,77.29
2018-08-10T01:07:51.899Z,77.10
2018-08-10T01:10:21.266Z,77.40
2018-08-10T01:12:50.275Z,78.82
2018-08-10T01:15:19.267Z,80.19
2018-08-10T01:17:48.255Z,79.14
2018-08-10T01:20:22.839Z,80.03
2018-08-10T01:22:57.640Z,79.54
2018-08-10T01:25:27.596Z,78.58
2018-08-10T01:28:03.817Z,78.63
2018-08-10T01:30:33.992Z,78.90
2018-08-10T01:36:10.362Z,80.29
2018-08-10T01:38:44.330Z,77.95
2018-08-10T01:41:27.481Z,78.71
2018-08-10T01:47:01.530Z,77.56
2018-08-10T01:49:31.453Z,76.69
2018-08-10T01:52:01.458Z,78.75
2018-08-10T01:54:30.503Z,77.89
2018-08-10T01:56:59.441Z,76.72
2018-08-10T01:59:29.471Z,76.94
2018-08-10T02:01:59.054Z,76.35
2018-08-10T02:04:31.191Z,76.52
2018-08-10T02:07:02.337Z,77.04
2018-08-10T02:09:31.286Z,76.69
2018-08-10T02:12:00.382Z,76.24
2018-08-10T02:14:29.731Z,76.99
2018-08-10T02:16:58.726Z,76.04
2018-08-10T02:19:27.712Z,76.23
2018-08-10T02:21:56.972Z,75.57
2018-08-10T02:24:25.920Z,76.44
2018-08-10T02:26:55.389Z,76.54
2018-08-10T02:29:24.396Z,76.31
2018-08-10T02:31:53.400Z,76.23
2018-08-10T02:34:22.452Z,77.17
2018-08-10T02:36:52.326Z,76.08
2018-08-10T02:39:21.248Z,76.44
2018-08-10T02:41:50.873Z,76.41
2018-08-10T02:44:19.909Z,75.72
2018-08-10T02:46:48.918Z,77.40
2018-08-10T02:49:17.939Z,75.84
2018-08-10T02:51:47.028Z,75.96
2018-08-10T02:54:16.507Z,76.12
2018-08-10T02:56:45.636Z,76.53
2018-08-10T02:59:14.622Z,76.79
2018-08-10T03:01:43.598Z,76.49
2018-08-10T03:04:12.691Z,77.29
2018-08-10T03:06:42.880Z,75.17
2018-08-10T03:09:12.134Z,75.79
2018-08-10T03:11:41.899Z,76.94
2018-08-10T03:14:11.035Z,76.46
2018-08-10T03:16:40.134Z,76.65
2018-08-10T03:19:09.127Z,76.04
2018-08-10T03:21:38.180Z,76.49
2018-08-10T03:24:08.448Z,75.84
2018-08-10T03:26:38.378Z,77.01
2018-08-10T03:29:07.362Z,76.49
2018-08-10T03:31:36.498Z,77.25
2018-08-10T03:34:05.489Z,76.52
2018-08-10T03:36:34.369Z,77.41
2018-08-10T03:39:03.420Z,76.72
2018-08-10T03:41:32.639Z,76.98
2018-08-10T03:44:01.717Z,77.34
2018-08-10T03:46:30.977Z,76.84
2018-08-10T03:49:00.093Z,76.64
2018-08-10T03:51:29.100Z,76.92
2018-08-10T03:53:58.127Z,76.56
2018-08-10T03:56:27.265Z,77.65
2018-08-10T03:58:56.352Z,76.57
2018-08-10T04:01:25.315Z,76.76
2018-08-10T04:03:55.689Z,77.35
2018-08-10T04:06:24.938Z,78.29
2018-08-10T04:08:54.128Z,78.10
2018-08-10T04:11:23.252Z,77.62
2018-08-10T04:13:53.100Z,77.15
2018-08-10T04:16:22.190Z,77.55
2018-08-10T04:18:51.103Z,77.69
2018-08-10T04:21:20.185Z,77.53
2018-08-10T04:23:49.923Z,77.80
2018-08-10T04:26:19.820Z,76.51
2018-08-10T04:28:50.978Z,76.12
2018-08-10T04:31:20.785Z,77.11
2018-08-10T04:33:50.248Z,76.91
2018-08-10T04:36:20.214Z,75.81
2018-08-10T04:38:52.810Z,76.14
2018-08-10T04:41:26.519Z,76.80
2018-08-10T04:43:55.660Z,77.19
2018-08-10T04:46:25.208Z,77.08
2018-08-10T04:48:54.779Z,76.82
2018-08-10T04:51:23.763Z,76.92
2018-08-10T04:53:53.136Z,76.35
2018-08-10T04:56:22.097Z,77.13
2018-08-10T04:58:50.995Z,75.49
2018-08-10T05:01:19.912Z,75.82
2018-08-10T05:03:48.900Z,76.24
2018-08-10T05:06:17.869Z,76.49
2018-08-10T05:08:46.949Z,76.55
2018-08-10T05:11:18.180Z,75.01
2018-08-10T05:13:47.177Z,75.66
2018-08-10T05:16:16.125Z,75.73
2018-08-10T05:18:45.030Z,75.56
2018-08-10T05:21:13.963Z,74.92
2018-08-10T05:23:42.988Z,73.87
2018-08-10T05:26:11.875Z,74.37
2018-08-10T05:28:40.811Z,74.69
2018-08-10T05:31:11.912Z,73.90
2018-08-10T05:33:40.796Z,74.25
2018-08-10T05:36:09.722Z,74.03
2018-08-10T05:38:38.660Z,74.90
2018-08-10T05:41:07.537Z,74.36
2018-08-10T05:43:36.550Z,74.78
2018-08-10T05:46:05.389Z,74.95
2018-08-10T05:48:40.418Z,74.88
2018-08-10T05:51:13.558Z,74.82
2018-08-10T05:53:42.799Z,75.20
2018-08-10T05:56:12.244Z,75.32
2018-08-10T05:58:41.205Z,74.76
2018-08-10T06:01:10.222Z,74.56
2018-08-10T06:03:39.262Z,74.40
2018-08-10T06:06:08.068Z,76.00
2018-08-10T06:08:38.542Z,75.50
2018-08-10T06:11:08.732Z,75.86
2018-08-10T06:13:37.670Z,76.15
2018-08-10T06:16:06.682Z,76.06
2018-08-10T06:18:35.576Z,75.50
2018-08-10T06:21:04.528Z,75.50
2018-08-10T06:23:33.510Z,75.53
2018-08-10T06:26:02.476Z,75.24
2018-08-10T06:28:31.547Z,74.66
2018-08-10T06:31:00.448Z,75.07
2018-08-10T06:33:29.341Z,75.38
2018-08-10T06:35:58.473Z,74.91
2018-08-10T06:38:27.419Z,73.95
2018-08-10T06:40:56.534Z,74.01
2018-08-10T06:43:25.616Z,75.35
2018-08-10T06:45:54.651Z,74.28
2018-08-10T06:48:23.523Z,75.02
2018-08-10T06:50:52.444Z,73.87
2018-08-10T06:53:21.338Z,75.00
2018-08-10T06:55:50.281Z,74.79
2018-08-10T07:01:19.128Z,73.92
2018-08-10T07:03:48.641Z,74.28
2018-08-10T07:06:17.674Z,73.01
2018-08-10T07:08:46.742Z,74.06
2018-08-10T07:11:15.628Z,72.58
2018-08-10T07:13:44.709Z,73.24
2018-08-10T07:16:13.504Z,72.23
2018-08-10T07:18:42.489Z,73.46
2018-08-10T07:21:11.345Z,72.89
2018-08-10T07:23:40.416Z,73.31
2018-08-10T07:26:09.387Z,72.77
2018-08-10T07:28:38.458Z,72.30
2018-08-10T07:31:07.845Z,72.83
2018-08-10T07:33:36.798Z,71.73
2018-08-10T07:36:05.875Z,72.25
2018-08-10T07:38:35.133Z,72.56
2018-08-10T07:41:03.949Z,72.88
2018-08-10T07:43:32.849Z,73.02
2018-08-10T07:46:02.052Z,72.40
2018-08-10T07:48:34.592Z,73.09
2018-08-10T07:51:03.719Z,72.62
2018-08-10T07:53:32.712Z,71.56
2018-08-10T07:56:02.384Z,70.89
2018-08-10T07:58:31.471Z,71.03
2018-08-10T08:01:00.361Z,70.99
2018-08-10T08:03:29.257Z,69.39
2018-08-10T08:05:58.284Z,70.50
2018-08-10T08:08:31.001Z,68.62
2018-08-10T08:11:00.167Z,69.03
2018-08-10T08:13:29.097Z,69.78
2018-08-10T08:15:58.096Z,70.19
2018-08-10T08:18:27.232Z,70.46
2018-08-10T08:21:07.871Z,69.53
2018-08-10T08:23:37.059Z,68.99
2018-08-10T08:26:07.192Z,69.27
2018-08-10T08:28:36.677Z,68.43
2018-08-10T08:31:06.180Z,67.57
2018-08-10T08:33:45.240Z,67.82
2018-08-10T08:36:14.255Z,67.77
2018-08-10T08:38:54.688Z,67.84
2018-08-10T08:41:24.047Z,67.42
2018-08-10T08:44:30.831Z,67.35
2018-08-10T08:46:59.856Z,66.60
2018-08-10T08:49:28.825Z,65.79
2018-08-10T08:51:57.857Z,65.83
2018-08-10T08:55:34.949Z,65.35
2018-08-10T08:58:04.057Z,64.18
2018-08-10T09:00:33.253Z,64.86
2018-08-10T09:03:02.275Z,63.95
2018-08-10T09:05:31.259Z,63.51
2018-08-10T09:08:00.152Z,64.08
2018-08-10T09:10:35.860Z,62.99
2018-08-10T09:13:04.834Z,63.75
2018-08-10T09:15:33.774Z,63.31
2018-08-10T09:18:02.826Z,62.42
2018-08-10T09:20:31.735Z,63.63
2018-08-10T09:23:00.755Z,64.19
2018-08-10T09:25:29.919Z,63.55
2018-08-10T09:27:58.819Z,61.95
2018-08-10T09:30:27.707Z,62.48
2018-08-10T09:32:56.748Z,61.86
2018-08-10T09:35:25.640Z,61.17
2018-08-10T09:37:54.662Z,62.15
2018-08-10T09:40:23.628Z,61.49
2018-08-10T09:42:52.672Z,60.25
2018-08-10T09:45:21.589Z,60.81
2018-08-10T09:47:50.970Z,61.41
2018-08-10T09:50:20.439Z,60.96
2018-08-10T09:53:01.664Z,59.22
2018-08-10T09:55:39.215Z,58.68
2018-08-10T09:58:15.386Z,59.42
2018-08-10T10:00:49.616Z,59.76
2018-08-10T10:03:26.275Z,58.07
2018-08-10T10:05:56.568Z,57.77
2018-08-10T10:08:26.072Z,58.88
2018-08-10T10:10:55.088Z,59.91
2018-08-10T10:13:24.028Z,57.96
2018-08-10T10:15:53.089Z,58.17
2018-08-10T10:18:21.979Z,56.91
2018-08-10T10:20:50.951Z,56.87
2018-08-10T10:23:20.075Z,56.50
2018-08-10T10:25:48.990Z,56.30
2018-08-10T10:28:17.980Z,56.96
2018-08-10T10:30:46.881Z,55.74
2018-08-10T10:33:15.788Z,55.92
2018-08-10T10:35:44.857Z,55.97
2018-08-10T10:38:13.770Z,55.22
2018-08-10T10:40:42.702Z,54.35
2018-08-10T10:43:11.692Z,54.75
2018-08-10T10:45:40.560Z,55.91
2018-08-10T10:48:09.625Z,55.22
2018-08-10T10:50:38.654Z,54.72
2018-08-10T10:53:07.630Z,53.08
2018-08-10T10:55:36.675Z,53.53
2018-08-10T10:58:05.540Z,52.78
2018-08-10T11:00:34.435Z,54.20
2018-08-10T11:03:03.467Z,56.15
2018-08-10T11:05:32.453Z,53.38
2018-08-10T11:08:01.382Z,53.68
2018-08-10T11:10:30.302Z,52.37
2018-08-10T11:12:59.281Z,54.48
2018-08-10T11:15:28.196Z,52.45
2018-08-10T11:17:57.197Z,51.00
2018-08-10T11:20:26.164Z,51.33
2018-08-10T11:22:55.223Z,51.81
2018-08-10T11:25:24.302Z,50.31
2018-08-10T11:27:56.025Z,51.36
2018-08-10T11:30:26.160Z,51.18
2018-08-10T11:32:55.044Z,53.09
2018-08-10T11:35:24.016Z,51.15
2018-08-10T11:37:52.959Z,49.98
2018-08-10T11:40:22.060Z,49.74
2018-08-10T11:42:51.017Z,49.78
2018-08-10T11:45:19.883Z,49.02
2018-08-10T11:47:48.906Z,50.00
2018-08-10T11:50:17.942Z,50.09
2018-08-10T11:52:46.883Z,50.32
2018-08-10T11:55:15.865Z,50.45
2018-08-10T11:57:45.264Z,50.42
2018-08-10T12:00:15.489Z,51.40
2018-08-10T12:02:44.679Z,51.25
2018-08-10T12:05:14.459Z,51.89
2018-08-10T12:07:43.368Z,50.12
2018-08-10T12:10:12.357Z,48.87
2018-08-10T12:12:41.291Z,48.75
2018-08-10T12:15:12.204Z,47.60
2018-08-10T12:17:41.161Z,48.51
2018-08-10T12:20:10.620Z,49.36
2018-08-10T12:22:40.564Z,49.15
2018-08-10T12:25:09.656Z,47.15
2018-08-10T12:27:38.585Z,46.66
2018-08-10T12:30:09.617Z,47.77
2018-08-10T12:32:38.657Z,48.54
2018-08-10T12:35:08.129Z,46.65
2018-08-10T12:37:37.276Z,47.20
2018-08-10T12:40:06.391Z,48.75
2018-08-10T12:42:35.290Z,47.07
2018-08-10T12:45:04.501Z,47.35
2018-08-10T12:47:33.529Z,47.02
2018-08-10T12:50:03.214Z,47.03
2018-08-10T12:52:32.234Z,47.59
2018-08-10T12:55:01.931Z,45.98
2018-08-10T12:57:31.634Z,45.18
2018-08-10T13:00:00.867Z,45.71
2018-08-10T13:02:29.916Z,44.31
2018-08-10T13:04:58.816Z,45.60
2018-08-10T13:07:27.851Z,44.82
2018-08-10T13:09:56.914Z,45.30
2018-08-10T13:12:25.914Z,44.81
2018-08-10T13:14:54.943Z,45.54
2018-08-10T13:17:23.950Z,46.01
2018-08-10T13:19:52.980Z,45.54
2018-08-10T13:22:23.328Z,44.99
2018-08-10T13:24:52.333Z,48.01
2018-08-10T13:27:21.323Z,47.54
2018-08-10T13:29:50.321Z,45.36
2018-08-10T13:32:19.233Z,45.41
2018-08-10T13:34:48.231Z,47.50
2018-08-10T13:37:18.868Z,46.74
2018-08-10T13:39:48.903Z,43.94
2018-08-10T13:42:17.925Z,46.36
2018-08-10T13:44:46.992Z,42.14
2018-08-10T13:47:16.005Z,44.50
2018-08-10T13:49:44.995Z,46.70
2018-08-10T13:52:16.360Z,45.00
2018-08-10T13:54:46.554Z,48.08
2018-08-10T13:57:15.507Z,45.78
2018-08-10T13:59:44.500Z,47.94
2018-08-10T14:02:14.156Z,47.79
2018-08-10T14:04:43.039Z,45.27
2018-08-10T14:07:12.231Z,45.08
2018-08-10T14:09:41.427Z,46.14
2018-08-10T14:12:14.239Z,45.91
2018-08-10T14:14:43.728Z,46.13
2018-08-10T14:17:13.527Z,47.21
2018-08-10T14:19:44.047Z,47.15
2018-08-10T14:22:13.163Z,46.38
2018-08-10T14:24:43.875Z,46.39
2018-08-10T14:27:14.026Z,45.67
2018-08-10T14:29:45.754Z,45.77
2018-08-10T14:32:16.373Z,45.61
2018-08-10T14:34:45.359Z,45.52
2018-08-10T14:37:14.376Z,46.02
2018-08-10T14:39:43.715Z,46.49
2018-08-10T14:42:13.834Z,45.34
2018-08-10T14:44:44.193Z,45.12
2018-08-10T14:47:13.255Z,45.00
2018-08-10T14:49:45.085Z,45.78
2018-08-10T14:52:14.720Z,46.03
2018-08-10T14:54:45.078Z,46.75
2018-08-10T14:57:16.304Z,46.88
2018-08-10T14:59:46.746Z,47.24
2018-08-10T15:02:18.995Z,45.95
2018-08-10T15:04:49.811Z,48.66
2018-08-10T15:07:20.395Z,48.94
2018-08-10T15:09:58.422Z,51.59
2018-08-10T15:12:28.673Z,50.44
2018-08-10T15:14:57.424Z,50.55
2018-08-10T15:17:26.396Z,49.99
2018-08-10T15:19:55.524Z,48.50
2018-08-10T15:22:24.443Z,49.90
2018-08-10T15:24:53.447Z,48.93
2018-08-10T15:27:45.699Z,51.36
2018-08-10T15:30:16.742Z,55.73
2018-08-10T15:32:45.764Z,56.17
2018-08-10T15:35:16.087Z,57.17
2018-08-10T15:37:45.599Z,57.04
2018-08-10T15:40:17.306Z,56.26
2018-08-10T15:42:46.276Z,56.03
2018-08-10T15:45:16.319Z,56.90
2018-08-10T15:47:45.902Z,54.56
2018-08-10T15:50:15.141Z,53.84
2018-08-10T15:52:45.142Z,51.13
2018-08-10T15:55:19.095Z,49.38
2018-08-10T15:57:56.264Z,51.08
2018-08-10T16:00:26.015Z,51.37
2018-08-10T16:02:54.951Z,49.58
2018-08-10T16:05:30.586Z,51.65
2018-08-10T16:07:59.660Z,48.55
2018-08-10T16:10:28.666Z,50.31
2018-08-10T16:12:57.861Z,51.77
2018-08-10T16:15:26.821Z,49.91
2018-08-10T16:17:55.851Z,51.17
2018-08-10T16:20:24.940Z,49.35
2018-08-10T16:22:53.978Z,48.03
2018-08-10T16:25:23.012Z,47.84
2018-08-10T16:27:52.194Z,48.71
2018-08-10T16:30:21.252Z,50.83
2018-08-10T16:32:50.190Z,49.50
2018-08-10T16:35:19.165Z,50.78
2018-08-10T16:37:48.572Z,51.97
2018-08-10T16:40:21.671Z,51.26
2018-08-10T16:42:56.008Z,48.75
2018-08-10T16:45:32.033Z,46.44
2018-08-10T16:48:05.215Z,44.43
2018-08-10T16:50:40.508Z,46.41
2018-08-10T16:53:13.604Z,47.57
2018-08-10T16:55:43.551Z,46.98
2018-08-10T16:58:13.347Z,46.65
2018-08-10T17:00:44.126Z,44.50
2018-08-10T17:03:14.007Z,45.19
2018-08-10T17:05:44.173Z,45.96
2018-08-10T17:08:16.004Z,45.74
2018-08-10T17:10:45.761Z,44.65
2018-08-10T17:13:14.716Z,44.47
2018-08-10T17:15:43.756Z,44.92
2018-08-10T17:18:13.997Z,45.57
2018-08-10T17:20:44.021Z,48.90
2018-08-10T17:23:14.707Z,51.03
2018-08-10T17:25:43.679Z,51.10
2018-08-10T17:28:13.710Z,51.16
2018-08-10T17:30:42.845Z,52.84
2018-08-10T17:33:12.315Z,52.60
2018-08-10T17:35:42.883Z,52.69
2018-08-10T17:38:15.661Z,52.79
2018-08-10T17:40:46.688Z,52.94
2018-08-10T17:43:17.984Z,54.11
2018-08-10T17:45:57.578Z,53.51
2018-08-10T17:48:29.779Z,54.51
2018-08-10T17:51:03.230Z,54.01
2018-08-10T17:53:35.006Z,54.48
2018-08-10T17:56:04.356Z,54.99
2018-08-10T17:58:36.130Z,56.18
2018-08-10T18:01:05.763Z,55.76
2018-08-10T18:03:34.723Z,54.35
2018-08-10T18:06:05.544Z,54.38
2018-08-10T18:08:36.479Z,54.19
2018-08-10T18:11:05.596Z,55.32
2018-08-10T18:13:36.039Z,55.89
2018-08-10T18:16:05.900Z,56.24
2018-08-10T18:18:34.861Z,55.64
2018-08-10T18:21:03.820Z,56.62
2018-08-10T18:23:33.300Z,56.60
2018-08-10T18:26:03.334Z,57.62
2018-08-10T18:28:37.461Z,57.91
2018-08-10T18:31:06.646Z,58.71
2018-08-10T18:33:35.579Z,58.25
2018-08-10T18:36:06.595Z,56.53
2018-08-10T18:38:35.533Z,56.73
2018-08-10T18:41:04.505Z,58.44
2018-08-10T18:43:33.465Z,58.48
2018-08-10T18:46:02.412Z,58.41
2018-08-10T18:48:32.024Z,58.59
2018-08-10T18:51:02.066Z,59.01
2018-08-10T18:53:31.005Z,59.48
2018-08-10T18:56:00.057Z,60.73
2018-08-10T18:58:29.162Z,60.96
2018-08-10T19:00:58.059Z,60.58
2018-08-10T19:03:27.072Z,60.78
2018-08-10T19:05:56.324Z,60.34
2018-08-10T19:08:25.502Z,60.30
2018-08-10T19:10:54.386Z,59.28
2018-08-10T19:13:24.085Z,60.75
2018-08-10T19:15:54.072Z,62.70
2018-08-10T19:18:23.106Z,63.11
2018-08-10T19:20:52.667Z,63.21
2018-08-10T19:23:21.722Z,64.25
2018-08-10T19:25:50.714Z,64.01
2018-08-10T19:28:19.683Z,63.68
2018-08-10T19:30:48.576Z,63.80
2018-08-10T19:33:18.034Z,60.55
2018-08-10T19:35:46.983Z,64.31
2018-08-10T19:38:16.031Z,64.69
2018-08-10T19:40:44.998Z,64.40
2018-08-10T19:43:13.907Z,63.85
2018-08-10T19:45:42.930Z,63.67
2018-08-10T19:48:12.128Z,64.51
2018-08-10T19:50:41.072Z,64.74
2018-08-10T19:53:11.035Z,64.73
2018-08-10T19:55:39.986Z,64.34
2018-08-10T19:58:08.938Z,65.37
2018-08-10T20:00:37.910Z,64.56
2018-08-10T20:03:06.961Z,64.48
2018-08-10T20:05:35.855Z,63.37
2018-08-10T20:08:04.822Z,65.51
2018-08-10T20:10:34.059Z,65.51
2018-08-10T20:13:03.010Z,64.34
2018-08-10T20:15:31.989Z,65.43
2018-08-10T20:18:00.942Z,65.31
2018-08-10T20:20:29.900Z,66.36
2018-08-10T20:22:58.854Z,65.55
2018-08-10T20:25:27.820Z,66.49
2018-08-10T20:27:56.870Z,65.88
2018-08-10T20:30:25.876Z,66.23
2018-08-10T20:32:54.868Z,65.43
2018-08-10T20:35:24.053Z,65.38
2018-08-10T20:41:57.710Z,67.10
2018-08-10T20:44:26.684Z,66.03
2018-08-10T20:46:55.764Z,65.78
2018-08-10T20:49:24.829Z,66.11
2018-08-10T20:51:53.820Z,67.04
2018-08-10T20:54:22.713Z,67.34
2018-08-10T20:56:51.773Z,66.69
2018-08-10T20:59:21.069Z,66.75
2018-08-10T21:01:50.045Z,67.46
2018-08-10T21:04:19.161Z,68.24
2018-08-10T21:06:48.702Z,67.75
2018-08-10T21:09:17.610Z,69.01
2018-08-10T21:11:46.679Z,69.09
2018-08-10T21:14:15.589Z,70.17
2018-08-10T21:16:44.586Z,70.35
2018-08-10T21:19:14.384Z,69.58
2018-08-10T21:21:43.179Z,69.50
2018-08-10T21:24:12.335Z,71.74
2018-08-10T21:26:41.346Z,71.33
2018-08-10T21:29:10.247Z,70.21
2018-08-10T21:31:39.262Z,70.24
2018-08-10T21:34:08.242Z,70.82
2018-08-10T21:36:37.232Z,71.88
2018-08-10T21:39:09.039Z,70.40
2018-08-10T21:41:37.994Z,71.15
2018-08-10T21:44:07.262Z,72.31
2018-08-10T21:46:36.473Z,72.15
2018-08-10T21:49:05.961Z,72.53
2018-08-10T21:51:35.323Z,72.44
2018-08-10T21:54:04.368Z,72.63
2018-08-10T21:56:33.338Z,72.61
2018-08-10T21:59:02.325Z,73.12
2018-08-10T22:01:31.542Z,72.01
2018-08-10T22:04:05.685Z,71.26
2018-08-10T22:06:36.594Z,73.21
2018-08-10T22:09:06.978Z,71.66
2018-08-10T22:11:36.043Z,71.66
2018-08-10T22:14:11.337Z,71.37
2018-08-10T22:17:47.256Z,72.28
2018-08-10T22:20:16.334Z,72.57
2018-08-10T22:22:45.343Z,71.91
2018-08-10T22:25:16.520Z,71.46
2018-08-10T22:27:47.395Z,72.62
2018-08-10T22:30:17.413Z,72.16
2018-08-10T22:32:48.173Z,71.72
2018-08-10T22:35:18.141Z,71.86
2018-08-10T22:37:48.642Z,72.33
2018-08-10T22:40:18.388Z,72.59
2018-08-10T22:42:48.834Z,71.94
2018-08-10T22:45:20.089Z,71.71
2018-08-10T22:47:53.506Z,71.86
2018-08-10T22:50:22.624Z,71.31
2018-08-10T22:52:51.609Z,71.26
2018-08-10T22:55:21.312Z,72.27
2018-08-10T22:57:50.268Z,73.45
2018-08-10T23:00:20.413Z,72.38
2018-08-10T23:02:49.749Z,72.12
2018-08-10T23:05:18.710Z,72.34
2018-08-10T23:07:49.698Z,73.27
2018-08-10T23:10:20.962Z,71.69
2018-08-10T23:12:56.024Z,71.77
2018-08-10T23:15:25.605Z,72.34
2018-08-10T23:18:00.367Z,73.02
2018-08-10T23:20:31.190Z,74.06
2018-08-10T23:23:03.219Z,72.59
2018-08-10T23:25:38.572Z,72.96
2018-08-10T23:28:13.547Z,72.86
2018-08-10T23:30:45.952Z,72.68
2018-08-10T23:33:16.300Z,73.11
2018-08-10T23:35:45.207Z,73.70
2018-08-10T23:38:14.163Z,73.42
2018-08-10T23:40:43.048Z,74.00
2018-08-10T23:43:11.970Z,73.99
2018-08-10T23:45:40.905Z,74.13
2018-08-10T23:48:09.843Z,74.42
2018-08-10T23:50:38.815Z,75.03
2018-08-10T23:53:07.965Z,74.44
2018-08-10T23:55:36.863Z,75.34
2018-08-10T23:58:05.851Z,74.81
